Time;durP1;ratioP1;P1;durP2;ratioP2;P2;SDS_P1;SDS_P2;PMS_P1;PMS_P2;Temp;Humidity;BMP_temperature;BMP_pressure;BME280_temperature;BME280_humidity;BME280_pressure;Samples;Min_cycle;Max_cycle;Signal;HPM_P1;HPM_P2
2024/01/29 00:00:16;;;;;;;;;;;;;;;;;;5095799;28;19908;-70
2024/01/29 00:02:42;;;;;;;;;;;;;;;;;;5095909;28;19912;-70
2024/01/29 00:05:08;;;;;;;;;;;;;;;;;;5095848;28;19922;-69
2024/01/29 00:07:34;;;;;;;;;;;;;;;;;;5095754;28;20395;-69
2024/01/29 00:10:00;;;;;;;;;;;;;;;;;;5096075;28;19916;-68
2024/01/29 00:12:26;;;;;;;;;;;;;;;;;;5095974;28;19908;-69
2024/01/29 00:14:53;;;;;;;;;;;;;;;;;;5095305;28;19912;-69
2024/01/29 00:17:19;;;;;;;;;;;;;;;;;;5096086;28;19908;-69
2024/01/29 00:19:45;;;;;;;;;;;;;;;;;;5095458;28;19912;-69
2024/01/29 00:22:11;;;;;;;;;;;;;;;;;;5095401;28;19908;-69
2024/01/29 00:24:38;;;;;;;;;;;;;;;;;;5095704;28;19916;-69
2024/01/29 00:27:04;;;;;;;;;;;;;;;;;;5095377;28;20403;-69
2024/01/29 00:29:30;;;;;;;;;;;;;;;;;;5094969;28;19912;-69
2024/01/29 00:31:58;;;;;;;;;;;;;;;;;;5095679;28;19915;-69
2024/01/29 00:34:24;;;;;;;;;;;;;;;;;;5095408;28;20324;-70
2024/01/29 00:36:50;;;;;;;;;;;;;;;;;;5095266;28;20262;-69
2024/01/29 00:39:16;;;;;;;;;;;;;;;;;;5094343;28;19923;-70
2024/01/29 00:41:42;;;;;;;;;;;;;;;;;;5095002;28;19908;-69
2024/01/29 00:44:08;;;;;;;;;;;;;;;;;;5094766;28;19916;-69
2024/01/29 00:46:35;;;;;;;;;;;;;;;;;;5095082;28;19912;-69
2024/01/29 00:49:01;;;;;;;;;;;;;;;;;;5094923;28;19953;-70
2024/01/29 00:51:27;;;;;;;;;;;;;;;;;;5094992;28;19912;-69
2024/01/29 00:53:54;;;;;;;;;;;;;;;;;;5095071;28;19919;-69
2024/01/29 00:56:20;;;;;;;;;;;;;;;;;;5094815;28;19982;-70
2024/01/29 00:58:46;;;;;;;;;;;;;;;;;;5094394;28;19908;-70
2024/01/29 01:01:13;;;;;;;;;;;;;;;;;;5095131;28;19915;-69
2024/01/29 01:03:39;;;;;;;;;;;;;;;;;;5094915;28;19909;-69
2024/01/29 01:06:05;;;;;;;;;;;;;;;;;;5094843;28;19922;-69
2024/01/29 01:08:31;;;;;;;;;;;;;;;;;;5093557;28;19928;-68
2024/01/29 01:10:57;;;;;;;;;;;;;;;;;;5092999;28;19916;-70
2024/01/29 01:13:24;;;;;;;;;;;;;;;;;;5110309;28;20437;-70
2024/01/29 01:15:53;;;;;;;;;;;;;;;;;;5094549;28;19908;-69
2024/01/29 01:18:19;;;;;;;;;;;;;;;;;;5094587;28;19908;-70
2024/01/29 01:20:45;;;;;;;;;;;;;;;;;;5094487;28;19926;-69
2024/01/29 01:23:11;;;;;;;;;;;;;;;;;;5094665;28;19912;-70
2024/01/29 01:25:37;;;;;;;;;;;;;;;;;;5093852;28;19972;-69
2024/01/29 01:28:04;;;;;;;;;;;;;;;;;;5094321;28;19912;-70
2024/01/29 01:30:30;;;;;;;;;;;;;;;;;;5093594;28;19961;-70
2024/01/29 01:32:56;;;;;;;;;;;;;;;;;;5094139;28;19908;-69
2024/01/29 01:35:22;;;;;;;;;;;;;;;;;;5094182;28;19908;-70
2024/01/29 01:37:49;;;;;;;;;;;;;;;;;;5094097;28;20426;-70
2024/01/29 01:40:15;;;;;;;;;;;;;;;;;;5093715;28;19915;-70
2024/01/29 01:42:42;;;;;;;;;;;;;;;;;;5094119;28;19916;-70
2024/01/29 01:45:08;;;;;;;;;;;;;;;;;;5093766;28;19972;-69
2024/01/29 01:47:34;;;;;;;;;;;;;;;;;;5094021;28;19914;-69
2024/01/29 01:50:00;;;;;;;;;;;;;;;;;;5093959;28;19916;-70
2024/01/29 01:52:26;;;;;;;;;;;;;;;;;;5093874;28;20372;-69
2024/01/29 01:54:53;;;;;;;;;;;;;;;;;;5093701;28;19968;-69
2024/01/29 01:57:19;;;;;;;;;;;;;;;;;;5092726;28;19909;-69
2024/01/29 01:59:45;;;;;;;;;;;;;;;;;;5093980;28;19909;-70
2024/01/29 02:02:11;;;;;;;;;;;;;;;;;;5093765;27;20385;-70
2024/01/29 02:04:37;;;;;;;;;;;;;;;;;;5093516;28;20305;-70
2024/01/29 02:07:03;;;;;;;;;;;;;;;;;;5093977;28;19915;-70
2024/01/29 02:09:30;;;;;;;;;;;;;;;;;;5093219;28;19924;-69
2024/01/29 02:11:56;;;;;;;;;;;;;;;;;;5093508;28;19914;-69
2024/01/29 02:14:22;;;;;;;;;;;;;;;;;;5093632;28;20392;-69
2024/01/29 02:16:48;;;;;;;;;;;;;;;;;;5093763;28;19914;-69
2024/01/29 02:19:15;;;;;;;;;;;;;;;;;;5093438;28;19918;-69
2024/01/29 02:21:41;;;;;;;;;;;;;;;;;;5093541;28;19949;-70
2024/01/29 02:24:07;;;;;;;;;;;;;;;;;;5093018;28;19908;-70
2024/01/29 02:26:33;;;;;;;;;;;;;;;;;;5092510;28;19918;-70
2024/01/29 02:28:59;;;;;;;;;;;;;;;;;;5093280;28;19934;-70
2024/01/29 02:31:25;;;;;;;;;;;;;;;;;;5093283;28;19914;-69
2024/01/29 02:33:52;;;;;;;;;;;;;;;;;;5093152;28;19918;-69
2024/01/29 02:36:18;;;;;;;;;;;;;;;;;;5092110;28;19921;-69
2024/01/29 02:38:44;;;;;;;;;;;;;;;;;;5093098;28;19953;-68
2024/01/29 02:41:10;;;;;;;;;;;;;;;;;;5092478;28;19908;-69
2024/01/29 02:43:36;;;;;;;;;;;;;;;;;;5091812;28;19912;-68
2024/01/29 02:46:03;;;;;;;;;;;;;;;;;;5092941;28;19922;-69
2024/01/29 02:48:29;;;;;;;;;;;;;;;;;;5093180;28;19908;-68
2024/01/29 02:50:55;;;;;;;;;;;;;;;;;;5091648;28;19914;-68
2024/01/29 02:53:21;;;;;;;;;;;;;;;;;;5091377;28;19916;-68
2024/01/29 02:55:47;;;;;;;;;;;;;;;;;;5093141;28;20374;-69
2024/01/29 02:58:13;;;;;;;;;;;;;;;;;;5093211;28;19961;-68
2024/01/29 03:00:40;;;;;;;;;;;;;;;;;;5093064;28;19908;-69
2024/01/29 03:03:06;;;;;;;;;;;;;;;;;;5093009;28;19909;-69
2024/01/29 03:05:32;;;;;;;;;;;;;;;;;;5092861;28;19916;-69
2024/01/29 03:07:58;;;;;;;;;;;;;;;;;;5092348;28;19927;-69
2024/01/29 03:10:24;;;;;;;;;;;;;;;;;;5092742;28;20403;-69
2024/01/29 03:12:52;;;;;;;;;;;;;;;;;;5093190;28;19912;-69
2024/01/29 03:15:18;;;;;;;;;;;;;;;;;;5093070;28;19908;-69
2024/01/29 03:17:44;;;;;;;;;;;;;;;;;;5091467;28;19908;-70
2024/01/29 03:20:11;;;;;;;;;;;;;;;;;;5093041;28;19918;-71
2024/01/29 03:22:37;;;;;;;;;;;;;;;;;;5091261;28;19908;-69
2024/01/29 03:25:03;;;;;;;;;;;;;;;;;;5092795;28;19919;-69
2024/01/29 03:27:29;;;;;;;;;;;;;;;;;;5092538;28;20371;-70
2024/01/29 03:29:55;;;;;;;;;;;;;;;;;;5092474;28;19931;-69
2024/01/29 03:32:21;;;;;;;;;;;;;;;;;;5092749;28;19915;-69
2024/01/29 03:34:48;;;;;;;;;;;;;;;;;;5092746;28;19915;-70
2024/01/29 03:37:14;;;;;;;;;;;;;;;;;;5091129;28;19961;-69
2024/01/29 03:39:40;;;;;;;;;;;;;;;;;;5092473;28;19908;-69
2024/01/29 03:42:06;;;;;;;;;;;;;;;;;;5092244;28;19912;-70
2024/01/29 03:44:32;;;;;;;;;;;;;;;;;;5092387;28;19920;-69
2024/01/29 03:46:58;;;;;;;;;;;;;;;;;;5092748;28;19908;-69
2024/01/29 03:49:25;;;;;;;;;;;;;;;;;;5091426;28;19930;-69
2024/01/29 03:51:51;;;;;;;;;;;;;;;;;;5092324;28;19981;-70
2024/01/29 03:54:17;;;;;;;;;;;;;;;;;;5094759;28;19912;-70
2024/01/29 03:56:43;;;;;;;;;;;;;;;;;;5095982;28;20349;-68
2024/01/29 03:59:11;;;;;;;;;;;;;;;;;;5095045;28;19919;-69
2024/01/29 04:01:37;;;;;;;;;;;;;;;;;;5096343;28;19908;-70
2024/01/29 04:04:03;;;;;;;;;;;;;;;;;;5096236;28;19908;-70
2024/01/29 04:06:29;;;;;;;;;;;;;;;;;;5094559;28;19912;-70
2024/01/29 04:08:55;;;;;;;;;;;;;;;;;;5095654;28;19924;-70
2024/01/29 04:11:21;;;;;;;;;;;;;;;;;;5096071;28;19912;-70
2024/01/29 04:13:47;;;;;;;;;;;;;;;;;;5096032;28;19937;-70
2024/01/29 04:16:14;;;;;;;;;;;;;;;;;;5095663;28;19919;-69
2024/01/29 04:18:40;;;;;;;;;;;;;;;;;;5096037;28;19973;-69
2024/01/29 04:21:06;;;;;;;;;;;;;;;;;;5095234;28;19908;-70
2024/01/29 04:23:32;;;;;;;;;;;;;;;;;;5095616;28;19909;-70
2024/01/29 04:25:59;;;;;;;;;;;;;;;;;;5095593;28;19916;-70
2024/01/29 04:28:25;;;;;;;;;;;;;;;;;;5095792;28;19912;-70
2024/01/29 04:30:51;;;;;;;;;;;;;;;;;;5095325;28;19908;-70
2024/01/29 04:33:17;;;;;;;;;;;;;;;;;;5095361;28;20288;-70
2024/01/29 04:35:43;;;;;;;;;;;;;;;;;;5095366;28;19931;-70
2024/01/29 04:38:09;;;;;;;;;;;;;;;;;;5095824;28;19915;-70
2024/01/29 04:40:39;;;;;;;;;;;;;;;;;;5123023;27;19908;-70
2024/01/29 04:43:05;;;;;;;;;;;;;;;;;;5073997;28;19919;-70
2024/01/29 04:45:31;;;;;;;;;;;;;;;;;;5087041;28;19972;-70
2024/01/29 04:47:57;;;;;;;;;;;;;;;;;;5093891;28;20296;-70
2024/01/29 04:50:24;;;;;;;;;;;;;;;;;;5095063;28;19934;-68
2024/01/29 04:52:50;;;;;;;;;;;;;;;;;;5094078;28;19908;-68
2024/01/29 04:55:16;;;;;;;;;;;;;;;;;;5095569;28;19908;-70
2024/01/29 04:57:42;;;;;;;;;;;;;;;;;;5094890;28;19908;-70
2024/01/29 05:00:08;;;;;;;;;;;;;;;;;;5094730;28;19908;-70
2024/01/29 05:02:35;;;;;;;;;;;;;;;;;;5094926;28;19908;-70
2024/01/29 05:05:01;;;;;;;;;;;;;;;;;;5093527;28;19912;-70
2024/01/29 05:07:27;;;;;;;;;;;;;;;;;;5094570;28;19934;-70
2024/01/29 05:09:54;;;;;;;;;;;;;;;;;;5094620;28;19969;-70
2024/01/29 05:12:20;;;;;;;;;;;;;;;;;;5094830;28;19912;-69
2024/01/29 05:14:46;;;;;;;;;;;;;;;;;;5094587;28;19908;-70
2024/01/29 05:17:12;;;;;;;;;;;;;;;;;;5094604;28;19969;-69
2024/01/29 05:19:43;;;;;;;;;;;;;;;;;;5094467;28;19916;-70
2024/01/29 05:22:10;;;;;;;;;;;;;;;;;;5094530;28;19915;-70
2024/01/29 05:24:37;;;;;;;;;;;;;;;;;;5094225;28;19920;-69
2024/01/29 05:27:03;;;;;;;;;;;;;;;;;;5094357;28;19914;-69
2024/01/29 05:29:29;;;;;;;;;;;;;;;;;;5094407;28;20296;-69
2024/01/29 05:31:55;;;;;;;;;;;;;;;;;;5094214;28;19908;-69
2024/01/29 05:34:21;;;;;;;;;;;;;;;;;;5094162;28;19908;-68
2024/01/29 05:36:48;;;;;;;;;;;;;;;;;;5094339;28;19915;-69
2024/01/29 05:39:14;;;;;;;;;;;;;;;;;;5094171;28;19912;-69
2024/01/29 05:41:40;;;;;;;;;;;;;;;;;;5094147;28;19908;-69
2024/01/29 05:44:06;;;;;;;;;;;;;;;;;;5093746;28;19919;-69
2024/01/29 05:46:32;;;;;;;;;;;;;;;;;;5093854;28;20277;-69
2024/01/29 05:48:59;;;;;;;;;;;;;;;;;;5094148;28;19908;-69
2024/01/29 05:51:25;;;;;;;;;;;;;;;;;;5093765;28;19985;-70
2024/01/29 05:53:51;;;;;;;;;;;;;;;;;;5093936;28;20421;-70
2024/01/29 05:56:17;;;;;;;;;;;;;;;;;;5094108;28;19968;-70
2024/01/29 05:58:45;;;;;;;;;;;;;;;;;;5093756;28;19922;-70
2024/01/29 06:01:12;;;;;;;;;;;;;;;;;;5126145;27;19912;-68
2024/01/29 06:03:38;;;;;;;;;;;;;;;;;;5094079;28;19908;-68
2024/01/29 06:06:04;;;;;;;;;;;;;;;;;;5093616;28;20036;-68
2024/01/29 06:08:30;;;;;;;;;;;;;;;;;;5093544;28;19926;-68
2024/01/29 06:10:56;;;;;;;;;;;;;;;;;;5092722;28;20302;-69
2024/01/29 06:13:23;;;;;;;;;;;;;;;;;;5092194;28;20327;-68
2024/01/29 06:15:50;;;;;;;;;;;;;;;;;;5093189;28;20367;-69
2024/01/29 06:18:16;;;;;;;;;;;;;;;;;;5093446;28;19912;-69
2024/01/29 06:20:42;;;;;;;;;;;;;;;;;;5093146;28;19952;-69
2024/01/29 06:23:09;;;;;;;;;;;;;;;;;;5093658;28;19908;-68
2024/01/29 06:25:35;;;;;;;;;;;;;;;;;;5093224;28;19922;-70
2024/01/29 06:28:02;;;;;;;;;;;;;;;;;;5093338;28;19912;-69
2024/01/29 06:30:28;;;;;;;;;;;;;;;;;;5125671;27;19912;-69
2024/01/29 06:32:57;;;;;;;;;;;;;;;;;;5093173;28;19908;-68
2024/01/29 06:35:23;;;;;;;;;;;;;;;;;;5093080;28;20372;-69
2024/01/29 06:37:52;;;;;;;;;;;;;;;;;;5093196;28;19908;-69
2024/01/29 06:40:22;;;;;;;;;;;;;;;;;;5093209;28;19908;-69
2024/01/29 06:42:49;;;;;;;;;;;;;;;;;;5093138;28;19913;-70
2024/01/29 06:45:15;;;;;;;;;;;;;;;;;;5092571;28;19916;-69
2024/01/29 06:47:41;;;;;;;;;;;;;;;;;;5093047;28;19923;-70
2024/01/29 06:50:07;;;;;;;;;;;;;;;;;;5093110;28;19908;-70
2024/01/29 06:52:33;;;;;;;;;;;;;;;;;;5092957;28;19953;-70
2024/01/29 06:55:00;;;;;;;;;;;;;;;;;;5093174;28;19917;-69
2024/01/29 06:57:26;;;;;;;;;;;;;;;;;;5093094;28;19908;-69
2024/01/29 06:59:52;;;;;;;;;;;;;;;;;;5092596;28;19914;-69
2024/01/29 07:02:18;;;;;;;;;;;;;;;;;;5092953;28;19908;-69
2024/01/29 07:04:45;;;;;;;;;;;;;;;;;;5092891;28;19942;-69
2024/01/29 07:07:11;;;;;;;;;;;;;;;;;;5092687;28;19908;-70
2024/01/29 07:09:37;;;;;;;;;;;;;;;;;;5092921;28;20342;-70
2024/01/29 07:12:04;;;;;;;;;;;;;;;;;;5092934;28;19908;-70
2024/01/29 07:14:30;;;;;;;;;;;;;;;;;;5092485;28;20254;-70
2024/01/29 07:16:57;;;;;;;;;;;;;;;;;;5092607;28;19927;-70
2024/01/29 07:19:27;;;;;;;;;;;;;;;;;;5092801;28;19908;-70
2024/01/29 07:21:54;;;;;;;;;;;;;;;;;;5091419;28;19913;-70
2024/01/29 07:24:20;;;;;;;;;;;;;;;;;;5092554;28;20166;-69
2024/01/29 07:26:46;;;;;;;;;;;;;;;;;;5092453;28;19918;-70
2024/01/29 07:29:12;;;;;;;;;;;;;;;;;;5093710;28;19952;-71
2024/01/29 07:31:39;;;;;;;;;;;;;;;;;;5091269;28;19949;-70
2024/01/29 07:34:05;;;;;;;;;;;;;;;;;;5090374;28;19914;-69
2024/01/29 07:36:31;;;;;;;;;;;;;;;;;;5093038;28;19918;-70
2024/01/29 07:38:57;;;;;;;;;;;;;;;;;;5095736;28;19923;-70
2024/01/29 07:41:23;;;;;;;;;;;;;;;;;;5095014;28;19916;-70
2024/01/29 07:43:50;;;;;;;;;;;;;;;;;;5092885;28;20383;-70
2024/01/29 07:46:16;;;;;;;;;;;;;;;;;;5080811;28;19950;-70
2024/01/29 07:48:42;;;;;;;;;;;;;;;;;;5094463;28;19923;-70
2024/01/29 07:51:08;;;;;;;;;;;;;;;;;;5090905;28;19912;-70
2024/01/29 07:53:34;;;;;;;;;;;;;;;;;;5093841;28;20334;-70
2024/01/29 07:56:01;;;;;;;;;;;;;;;;;;5090024;28;19926;-70
2024/01/29 07:58:27;;;;;;;;;;;;;;;;;;5093077;28;19916;-71
2024/01/29 08:00:53;;;;;;;;;;;;;;;;;;5089991;28;20376;-71
2024/01/29 08:03:19;;;;;;;;;;;;;;;;;;5094466;28;19908;-70
2024/01/29 08:05:45;;;;;;;;;;;;;;;;;;5092915;28;19949;-70
2024/01/29 08:08:12;;;;;;;;;;;;;;;;;;5101955;28;19930;-70
2024/01/29 08:10:38;;;;;;;;;;;;;;;;;;5092604;28;19912;-71
2024/01/29 08:13:04;;;;;;;;;;;;;;;;;;5085975;28;19919;-71
2024/01/29 08:15:30;;;;;;;;;;;;;;;;;;5073912;28;19916;-67
2024/01/29 08:17:57;;;;;;;;;;;;;;;;;;5093475;28;19926;-67
2024/01/29 08:20:24;;;;;;;;;;;;;;;;;;5086623;28;19912;-67
2024/01/29 08:22:51;;;;;;;;;;;;;;;;;;5089918;28;19922;-67
2024/01/29 08:25:17;;;;;;;;;;;;;;;;;;5084410;28;19916;-70
2024/01/29 08:27:43;;;;;;;;;;;;;;;;;;5093650;28;19953;-70
2024/01/29 08:30:09;;;;;;;;;;;;;;;;;;5092938;28;19912;-69
2024/01/29 08:32:35;;;;;;;;;;;;;;;;;;5092397;28;20369;-70
2024/01/29 08:35:02;;;;;;;;;;;;;;;;;;5090717;28;19919;-70
2024/01/29 08:37:28;;;;;;;;;;;;;;;;;;5093871;28;19915;-70
2024/01/29 08:39:54;;;;;;;;;;;;;;;;;;5090239;28;19919;-74
2024/01/29 08:42:20;;;;;;;;;;;;;;;;;;5086812;28;19919;-68
2024/01/29 08:44:46;;;;;;;;;;;;;;;;;;5093354;28;19934;-71
2024/01/29 08:47:12;;;;;;;;;;;;;;;;;;5093854;28;19938;-71
2024/01/29 08:49:39;;;;;;;;;;;;;;;;;;5090829;28;19931;-72
2024/01/29 08:52:05;;;;;;;;;;;;;;;;;;5093326;28;19912;-75
2024/01/29 08:54:31;;;;;;;;;;;;;;;;;;5090722;28;19922;-72
2024/01/29 08:56:57;;;;;;;;;;;;;;;;;;5093358;28;20727;-74
2024/01/29 08:59:29;;;;;;;;;;;;;;;;;;5092174;28;20000;-71
2024/01/29 09:01:57;;;;;;;;;;;;;;;;;;5093750;28;19912;-75
2024/01/29 09:04:23;;;;;;;;;;;;;;;;;;5090376;28;20301;-73
2024/01/29 09:06:49;;;;;;;;;;;;;;;;;;5091698;28;19922;-74
2024/01/29 09:09:15;;;;;;;;;;;;;;;;;;5091580;28;19920;-72
2024/01/29 09:11:41;;;;;;;;;;;;;;;;;;5092425;28;19969;-71
2024/01/29 09:14:08;;;;;;;;;;;;;;;;;;5093372;28;19916;-72
2024/01/29 09:16:34;;;;;;;;;;;;;;;;;;5093907;28;19916;-72
2024/01/29 09:19:00;;;;;;;;;;;;;;;;;;5091612;28;19916;-78
2024/01/29 09:21:30;;;;;;;;;;;;;;;;;;5082138;28;19918;-71
2024/01/29 09:23:57;;;;;;;;;;;;;;;;;;5092357;28;19912;-72
2024/01/29 09:26:23;;;;;;;;;;;;;;;;;;5092549;28;19924;-73
2024/01/29 09:28:49;;;;;;;;;;;;;;;;;;5090217;28;19920;-72
2024/01/29 09:31:15;;;;;;;;;;;;;;;;;;5124490;27;19919;-74
2024/01/29 09:33:42;;;;;;;;;;;;;;;;;;5092562;28;19915;-71
2024/01/29 09:36:08;;;;;;;;;;;;;;;;;;5083812;28;20387;-73
2024/01/29 09:38:34;;;;;;;;;;;;;;;;;;5091877;28;19912;-71
2024/01/29 09:41:00;;;;;;;;;;;;;;;;;;5091024;28;19938;-72
2024/01/29 09:43:27;;;;;;;;;;;;;;;;;;5088125;28;20361;-71
2024/01/29 09:45:53;;;;;;;;;;;;;;;;;;5088214;28;19923;-72
2024/01/29 09:48:19;;;;;;;;;;;;;;;;;;5092541;28;19941;-71
2024/01/29 09:50:46;;;;;;;;;;;;;;;;;;5090037;28;20369;-72
2024/01/29 09:53:16;;;;;;;;;;;;;;;;;;5089213;28;19920;-73
2024/01/29 09:55:42;;;;;;;;;;;;;;;;;;5092687;28;19918;-72
2024/01/29 09:58:09;;;;;;;;;;;;;;;;;;5089090;28;20369;-72
2024/01/29 10:00:35;;;;;;;;;;;;;;;;;;5093422;28;19908;-72
2024/01/29 10:03:01;;;;;;;;;;;;;;;;;;5090443;28;19916;-72
2024/01/29 10:05:27;;;;;;;;;;;;;;;;;;5091989;28;20381;-72
2024/01/29 10:07:56;;;;;;;;;;;;;;;;;;5091936;28;19916;-72
2024/01/29 10:10:22;;;;;;;;;;;;;;;;;;5092494;28;20032;-73
2024/01/29 10:12:48;;;;;;;;;;;;;;;;;;5090854;28;19908;-73
2024/01/29 10:15:14;;;;;;;;;;;;;;;;;;5089317;28;20285;-72
2024/01/29 10:17:40;;;;;;;;;;;;;;;;;;5090097;28;19916;-70
2024/01/29 10:20:06;;;;;;;;;;;;;;;;;;5091836;28;19908;-74
2024/01/29 10:22:33;;;;;;;;;;;;;;;;;;5087924;28;20284;-71
2024/01/29 10:24:59;;;;;;;;;;;;;;;;;;5089924;28;19924;-71
2024/01/29 10:27:25;;;;;;;;;;;;;;;;;;5091957;28;19918;-70
2024/01/29 10:29:51;;;;;;;;;;;;;;;;;;5088109;28;19916;-69
2024/01/29 10:32:17;;;;;;;;;;;;;;;;;;5085551;28;20308;-71
2024/01/29 10:34:44;;;;;;;;;;;;;;;;;;5090674;28;19969;-71
2024/01/29 10:37:10;;;;;;;;;;;;;;;;;;5090154;28;20339;-72
2024/01/29 10:39:36;;;;;;;;;;;;;;;;;;5091283;28;19916;-73
2024/01/29 10:42:02;;;;;;;;;;;;;;;;;;5076729;28;19957;-73
2024/01/29 10:44:29;;;;;;;;;;;;;;;;;;5089051;28;19916;-72
2024/01/29 10:46:55;;;;;;;;;;;;;;;;;;5088916;28;19923;-73
2024/01/29 10:49:21;;;;;;;;;;;;;;;;;;5090843;28;19923;-77
2024/01/29 10:51:48;;;;;;;;;;;;;;;;;;5071248;28;19919;-73
2024/01/29 10:54:14;;;;;;;;;;;;;;;;;;5082661;28;19965;-75
2024/01/29 10:56:40;;;;;;;;;;;;;;;;;;5091266;27;20385;-72
2024/01/29 10:59:06;;;;;;;;;;;;;;;;;;5091057;28;19965;-73
2024/01/29 11:01:33;;;;;;;;;;;;;;;;;;5091200;28;19912;-72
2024/01/29 11:04:00;;;;;;;;;;;;;;;;;;5093792;28;19965;-70
2024/01/29 11:06:26;;;;;;;;;;;;;;;;;;5091412;28;19928;-71
2024/01/29 11:08:53;;;;;;;;;;;;;;;;;;5085401;28;19920;-71
2024/01/29 11:11:19;;;;;;;;;;;;;;;;;;5096498;28;19908;-74
2024/01/29 11:13:46;;;;;;;;;;;;;;;;;;5093296;28;19942;-72
2024/01/29 11:16:12;;;;;;;;;;;;;;;;;;5092888;28;19916;-74
2024/01/29 11:18:38;;;;;;;;;;;;;;;;;;5094368;28;20172;-72
2024/01/29 11:21:04;;;;;;;;;;;;;;;;;;5094775;28;19918;-72
2024/01/29 11:23:31;;;;;;;;;;;;;;;;;;5096132;28;19908;-74
2024/01/29 11:25:57;;;;;;;;;;;;;;;;;;5076885;28;19920;-71
2024/01/29 11:28:24;;;;;;;;;;;;;;;;;;5091849;28;20304;-74
2024/01/29 11:30:50;;;;;;;;;;;;;;;;;;5094002;28;19918;-72
2024/01/29 11:33:16;;;;;;;;;;;;;;;;;;5093040;28;20220;-73
2024/01/29 11:35:42;;;;;;;;;;;;;;;;;;5094264;28;20388;-74
2024/01/29 11:38:09;;;;;;;;;;;;;;;;;;5093321;28;19918;-74
2024/01/29 11:40:36;;;;;;;;;;;;;;;;;;5094034;28;19912;-79
2024/01/29 11:43:02;;;;;;;;;;;;;;;;;;5092318;28;19919;-67
2024/01/29 11:45:31;;;;;;;;;;;;;;;;;;5082689;28;19981;-68
2024/01/29 11:47:58;;;;;;;;;;;;;;;;;;5093281;28;19964;-67
2024/01/29 11:50:24;;;;;;;;;;;;;;;;;;5094111;28;20369;-68
2024/01/29 11:52:51;;;;;;;;;;;;;;;;;;5094644;28;19912;-68
2024/01/29 11:55:17;;;;;;;;;;;;;;;;;;5094939;28;19908;-68
2024/01/29 11:57:43;;;;;;;;;;;;;;;;;;5093183;28;19911;-68
2024/01/29 12:00:10;;;;;;;;;;;;;;;;;;5094468;28;19912;-68
2024/01/29 12:02:36;;;;;;;;;;;;;;;;;;5094385;28;20430;-68
2024/01/29 12:05:02;;;;;;;;;;;;;;;;;;5094093;28;20299;-68
2024/01/29 12:07:29;;;;;;;;;;;;;;;;;;5094275;28;19923;-68
2024/01/29 12:09:55;;;;;;;;;;;;;;;;;;5094314;28;19912;-68
2024/01/29 12:12:21;;;;;;;;;;;;;;;;;;5094071;28;19912;-68
2024/01/29 12:14:47;;;;;;;;;;;;;;;;;;5092862;28;19988;-68
2024/01/29 12:17:14;;;;;;;;;;;;;;;;;;5094462;28;20380;-68
2024/01/29 12:19:41;;;;;;;;;;;;;;;;;;5093833;28;20066;-68
2024/01/29 12:22:07;;;;;;;;;;;;;;;;;;5094151;28;19908;-68
2024/01/29 12:24:33;;;;;;;;;;;;;;;;;;5094153;28;20372;-68
2024/01/29 12:26:59;;;;;;;;;;;;;;;;;;5093997;28;19912;-68
2024/01/29 12:29:25;;;;;;;;;;;;;;;;;;5093908;28;19914;-68
2024/01/29 12:31:51;;;;;;;;;;;;;;;;;;5094100;28;19916;-68
2024/01/29 12:34:18;;;;;;;;;;;;;;;;;;5093995;28;19918;-68
2024/01/29 12:36:44;;;;;;;;;;;;;;;;;;5094263;28;20372;-68
2024/01/29 12:39:11;;;;;;;;;;;;;;;;;;5094780;28;19912;-69
2024/01/29 12:41:38;;;;;;;;;;;;;;;;;;5092686;28;19915;-69
2024/01/29 12:44:04;;;;;;;;;;;;;;;;;;5094955;28;20368;-71
2024/01/29 12:46:30;;;;;;;;;;;;;;;;;;5082464;28;19969;-69
2024/01/29 12:48:57;;;;;;;;;;;;;;;;;;5086501;28;19935;-69
2024/01/29 12:51:23;;;;;;;;;;;;;;;;;;5088756;28;19916;-69
2024/01/29 12:53:49;;;;;;;;;;;;;;;;;;5092139;28;19918;-69
2024/01/29 12:56:15;;;;;;;;;;;;;;;;;;5081537;28;19912;-70
2024/01/29 12:58:41;;;;;;;;;;;;;;;;;;5090836;28;20450;-69
2024/01/29 13:01:08;;;;;;;;;;;;;;;;;;5090845;28;19911;-70
2024/01/29 13:03:34;;;;;;;;;;;;;;;;;;5082947;28;19922;-70
2024/01/29 13:06:02;;;;;;;;;;;;;;;;;;5088984;28;19947;-69
2024/01/29 13:08:28;;;;;;;;;;;;;;;;;;5086533;28;19924;-69
2024/01/29 13:10:54;;;;;;;;;;;;;;;;;;5092927;27;19908;-69
2024/01/29 13:13:20;;;;;;;;;;;;;;;;;;5085040;28;19908;-69
2024/01/29 13:15:47;;;;;;;;;;;;;;;;;;5090984;28;19912;-69
2024/01/29 13:18:13;;;;;;;;;;;;;;;;;;5088815;28;19922;-69
2024/01/29 13:20:41;;;;;;;;;;;;;;;;;;5092240;28;19912;-69
2024/01/29 13:23:09;;;;;;;;;;;;;;;;;;5092412;28;19912;-69
2024/01/29 13:25:35;;;;;;;;;;;;;;;;;;5090160;28;19949;-69
2024/01/29 13:28:04;;;;;;;;;;;;;;;;;;5091454;28;20391;-69
2024/01/29 13:30:30;;;;;;;;;;;;;;;;;;5088822;28;19918;-69
2024/01/29 13:32:56;;;;;;;;;;;;;;;;;;5091490;28;19916;-69
2024/01/29 13:35:22;;;;;;;;;;;;;;;;;;5090798;28;19908;-69
2024/01/29 13:37:50;;;;;;;;;;;;;;;;;;5093956;28;20338;-69
2024/01/29 13:40:16;;;;;;;;;;;;;;;;;;5092005;28;19918;-70
2024/01/29 13:42:42;;;;;;;;;;;;;;;;;;5090855;28;19912;-70
2024/01/29 13:45:08;;;;;;;;;;;;;;;;;;5083589;28;20342;-72
2024/01/29 13:47:35;;;;;;;;;;;;;;;;;;5089981;28;20376;-74
2024/01/29 13:50:02;;;;;;;;;;;;;;;;;;5090390;28;19916;-73
2024/01/29 13:52:29;;;;;;;;;;;;;;;;;;5085221;28;19920;-72
2024/01/29 13:54:55;;;;;;;;;;;;;;;;;;5082553;28;19934;-71
2024/01/29 13:57:21;;;;;;;;;;;;;;;;;;5087150;28;19960;-72
2024/01/29 13:59:48;;;;;;;;;;;;;;;;;;5083569;28;19919;-69
2024/01/29 14:02:14;;;;;;;;;;;;;;;;;;5090979;28;19916;-71
2024/01/29 14:04:40;;;;;;;;;;;;;;;;;;5089106;28;19916;-69
2024/01/29 14:07:06;;;;;;;;;;;;;;;;;;5079855;28;19923;-69
2024/01/29 14:09:33;;;;;;;;;;;;;;;;;;5107883;27;19935;-67
2024/01/29 14:11:59;;;;;;;;;;;;;;;;;;5089090;28;19941;-69
2024/01/29 14:14:25;;;;;;;;;;;;;;;;;;5087448;28;19918;-68
2024/01/29 14:16:51;;;;;;;;;;;;;;;;;;5091449;28;19916;-69
2024/01/29 14:19:20;;;;;;;;;;;;;;;;;;5080708;28;20462;-68
2024/01/29 14:21:46;;;;;;;;;;;;;;;;;;5091177;28;19923;-69
2024/01/29 14:24:12;;;;;;;;;;;;;;;;;;5073951;28;19912;-69
2024/01/29 14:26:41;;;;;;;;;;;;;;;;;;5090363;28;19923;-68
2024/01/29 14:29:07;;;;;;;;;;;;;;;;;;5090876;28;19918;-69
2024/01/29 14:31:33;;;;;;;;;;;;;;;;;;5111213;28;19912;-68
2024/01/29 14:33:59;;;;;;;;;;;;;;;;;;5094264;28;19918;-69
2024/01/29 14:36:25;;;;;;;;;;;;;;;;;;5079568;28;20291;-69
2024/01/29 14:38:56;;;;;;;;;;;;;;;;;;5088756;28;19909;-69
2024/01/29 14:41:23;;;;;;;;;;;;;;;;;;5086689;28;19981;-68
2024/01/29 14:43:49;;;;;;;;;;;;;;;;;;5088265;28;19912;-69
2024/01/29 14:46:15;;;;;;;;;;;;;;;;;;5089566;28;20300;-69
2024/01/29 14:48:42;;;;;;;;;;;;;;;;;;5087609;28;19920;-69
2024/01/29 14:51:08;;;;;;;;;;;;;;;;;;5087848;28;20262;-68
2024/01/29 14:53:34;;;;;;;;;;;;;;;;;;5087834;28;20353;-68
2024/01/29 14:56:00;;;;;;;;;;;;;;;;;;5090517;28;19918;-69
2024/01/29 14:58:27;;;;;;;;;;;;;;;;;;5088660;28;19912;-68
2024/01/29 15:00:54;;;;;;;;;;;;;;;;;;5083796;28;19916;-68
2024/01/29 15:03:20;;;;;;;;;;;;;;;;;;5091234;28;19912;-68
2024/01/29 15:05:47;;;;;;;;;;;;;;;;;;5091280;28;19920;-68
2024/01/29 15:08:13;;;;;;;;;;;;;;;;;;5090632;28;19920;-69
2024/01/29 15:10:40;;;;;;;;;;;;;;;;;;5091213;28;20307;-68
2024/01/29 15:13:06;;;;;;;;;;;;;;;;;;5083264;28;19915;-69
2024/01/29 15:15:32;;;;;;;;;;;;;;;;;;5087799;28;19915;-69
2024/01/29 15:17:58;;;;;;;;;;;;;;;;;;5084791;28;19913;-69
2024/01/29 15:20:24;;;;;;;;;;;;;;;;;;5087534;28;19916;-68
2024/01/29 15:22:51;;;;;;;;;;;;;;;;;;5090177;28;19912;-69
2024/01/29 15:25:18;;;;;;;;;;;;;;;;;;5089485;28;19916;-69
2024/01/29 15:27:44;;;;;;;;;;;;;;;;;;5087398;28;19916;-70
2024/01/29 15:30:11;;;;;;;;;;;;;;;;;;5086495;28;19916;-67
2024/01/29 15:32:37;;;;;;;;;;;;;;;;;;5088958;28;19916;-67
2024/01/29 15:35:03;;;;;;;;;;;;;;;;;;5090879;28;19908;-69
2024/01/29 15:37:29;;;;;;;;;;;;;;;;;;5099036;28;19930;-69
2024/01/29 15:39:55;;;;;;;;;;;;;;;;;;5091207;28;19912;-69
2024/01/29 15:42:27;;;;;;;;;;;;;;;;;;5088068;28;19926;-67
2024/01/29 15:44:54;;;;;;;;;;;;;;;;;;5085725;28;19916;-68
2024/01/29 15:47:20;;;;;;;;;;;;;;;;;;5087243;28;19944;-68
2024/01/29 15:49:46;;;;;;;;;;;;;;;;;;5089617;28;19972;-68
2024/01/29 15:52:12;;;;;;;;;;;;;;;;;;5093953;28;19912;-68
2024/01/29 15:54:38;;;;;;;;;;;;;;;;;;5092614;28;19912;-67
2024/01/29 15:57:06;;;;;;;;;;;;;;;;;;5092408;28;19912;-68
2024/01/29 15:59:32;;;;;;;;;;;;;;;;;;5094003;28;19920;-68
2024/01/29 16:01:58;;;;;;;;;;;;;;;;;;5089824;28;19914;-68
2024/01/29 16:04:25;;;;;;;;;;;;;;;;;;5093683;28;19912;-67
2024/01/29 16:06:51;;;;;;;;;;;;;;;;;;5092463;28;19920;-67
2024/01/29 16:09:17;;;;;;;;;;;;;;;;;;5075551;28;20340;-70
2024/01/29 16:11:43;;;;;;;;;;;;;;;;;;5092169;28;20269;-70
2024/01/29 16:14:10;;;;;;;;;;;;;;;;;;5092982;28;19912;-69
2024/01/29 16:16:36;;;;;;;;;;;;;;;;;;5077951;28;20296;-69
2024/01/29 16:19:02;;;;;;;;;;;;;;;;;;5112548;27;20193;-69
2024/01/29 16:21:28;;;;;;;;;;;;;;;;;;5080619;28;19912;-69
2024/01/29 16:23:54;;;;;;;;;;;;;;;;;;5087025;28;19912;-68
2024/01/29 16:26:21;;;;;;;;;;;;;;;;;;5094010;28;20410;-68
2024/01/29 16:28:47;;;;;;;;;;;;;;;;;;5112638;27;20006;-69
2024/01/29 16:31:13;;;;;;;;;;;;;;;;;;5089968;28;19918;-69
2024/01/29 16:33:43;;;;;;;;;;;;;;;;;;5092908;28;19919;-70
2024/01/29 16:36:09;;;;;;;;;;;;;;;;;;5107795;27;19931;-69
2024/01/29 16:38:35;;;;;;;;;;;;;;;;;;5073220;28;19924;-69